createdAt,value
2022-10-19T00:00:20.818Z,11.40
2022-10-19T00:02:22.738Z,10.63
2022-10-19T00:04:24.593Z,11.95
2022-10-19T00:06:34.251Z,10.95
2022-10-19T00:08:36.523Z,10.35
2022-10-19T00:10:40.656Z,11.65
2022-10-19T00:12:42.769Z,10.40
2022-10-19T00:14:45.839Z,10.30
2022-10-19T00:16:50.012Z,11.63
2022-10-19T00:18:52.024Z,10.48
2022-10-19T00:21:02.940Z,11.25
2022-10-19T00:23:04.957Z,11.30
2022-10-19T00:25:07.531Z,10.50
2022-10-19T00:27:09.855Z,10.75
2022-10-19T00:29:13.875Z,9.55
2022-10-19T00:31:17.988Z,10.80
2022-10-19T00:33:22.524Z,10.05
2022-10-19T00:35:24.379Z,9.77
2022-10-19T00:37:26.843Z,10.13
2022-10-19T00:39:28.664Z,11.02
2022-10-19T00:41:33.259Z,11.15
2022-10-19T00:43:51.924Z,10.20
2022-10-19T00:45:53.967Z,10.95
2022-10-19T00:47:56.519Z,9.85
2022-10-19T00:49:59.330Z,10.20
2022-10-19T00:52:08.691Z,11.23
2022-10-19T00:54:11.946Z,10.60
2022-10-19T00:56:16.053Z,10.15
2022-10-19T00:58:18.018Z,10.55
2022-10-19T01:00:19.965Z,10.23
2022-10-19T01:02:21.853Z,10.10
2022-10-19T01:04:26.175Z,10.38
2022-10-19T01:06:28.698Z,9.90
2022-10-19T01:08:30.643Z,10.07
2022-10-19T01:11:14.471Z,10.70
2022-10-19T01:13:26.670Z,9.77
2022-10-19T01:15:45.092Z,9.75
2022-10-19T01:17:58.502Z,9.57
2022-10-19T01:20:34.733Z,10.43
2022-10-19T01:22:45.320Z,10.02
2022-10-19T01:25:10.186Z,10.32
2022-10-19T01:27:37.534Z,9.95
2022-10-19T01:29:57.260Z,9.52
2022-10-19T01:32:06.605Z,9.90
2022-10-19T01:34:33.595Z,9.00
2022-10-19T01:36:54.595Z,8.98
2022-10-19T01:39:19.001Z,10.30
2022-10-19T01:41:20.836Z,9.40
2022-10-19T01:43:41.668Z,10.32
2022-10-19T01:46:17.209Z,8.98
2022-10-19T01:48:25.414Z,8.80
2022-10-19T01:50:45.469Z,9.57
2022-10-19T01:52:50.805Z,9.27
2022-10-19T01:54:56.735Z,9.90
2022-10-19T01:57:02.547Z,9.90
2022-10-19T01:59:08.160Z,9.68
2022-10-19T02:01:13.496Z,10.30
2022-10-19T02:03:17.433Z,9.98
2022-10-19T02:05:23.274Z,10.40
2022-10-19T02:07:26.570Z,9.25
2022-10-19T02:09:28.631Z,9.07
2022-10-19T02:11:32.389Z,8.93
2022-10-19T02:13:36.540Z,9.23
2022-10-19T02:15:43.830Z,9.23
2022-10-19T02:17:52.934Z,8.70
2022-10-19T02:19:55.321Z,10.18
2022-10-19T02:21:58.040Z,9.50
2022-10-19T02:23:59.858Z,9.55
2022-10-19T02:26:04.232Z,9.43
2022-10-19T02:28:06.299Z,8.27
2022-10-19T02:30:10.408Z,8.93
2022-10-19T02:32:12.784Z,9.90
2022-10-19T02:34:14.812Z,10.45
2022-10-19T02:36:18.186Z,11.10
2022-10-19T02:38:23.430Z,11.15
2022-10-19T02:40:27.056Z,10.98
2022-10-19T02:42:53.333Z,10.88
2022-10-19T02:45:06.571Z,11.15
2022-10-19T02:47:18.962Z,11.35
2022-10-19T02:49:21.620Z,11.05
2022-10-19T02:51:31.801Z,12.05
2022-10-19T02:53:33.855Z,10.45
2022-10-19T02:55:35.883Z,10.32
2022-10-19T02:57:37.945Z,10.50
2022-10-19T02:59:39.970Z,10.35
2022-10-19T03:01:41.934Z,10.63
2022-10-19T03:03:43.896Z,10.90
2022-10-19T03:05:45.811Z,9.70
2022-10-19T03:07:48.257Z,9.80
2022-10-19T03:09:50.809Z,9.75
2022-10-19T03:11:52.876Z,10.25
2022-10-19T03:13:57.337Z,9.50
2022-10-19T03:16:07.277Z,9.00
2022-10-19T03:18:09.317Z,10.32
2022-10-19T03:20:12.020Z,9.70
2022-10-19T03:22:17.400Z,9.82
2022-10-19T03:24:22.822Z,9.48
2022-10-19T03:26:25.120Z,9.48
2022-10-19T03:28:28.985Z,8.88
2022-10-19T03:30:31.212Z,9.73
2022-10-19T03:32:33.443Z,9.32
2022-10-19T03:34:35.423Z,9.57
2022-10-19T03:36:39.639Z,8.85
2022-10-19T03:38:41.882Z,9.75
2022-10-19T03:40:44.072Z,8.95
2022-10-19T03:42:46.110Z,9.07
2022-10-19T03:44:48.503Z,8.52
2022-10-19T03:46:50.429Z,8.35
2022-10-19T03:48:52.603Z,8.43
2022-10-19T03:51:22.235Z,9.32
2022-10-19T03:53:24.465Z,8.90
2022-10-19T03:55:26.374Z,10.50
2022-10-19T03:57:28.297Z,9.38
2022-10-19T03:59:30.296Z,9.80
2022-10-19T04:01:34.095Z,10.20
2022-10-19T04:05:40.355Z,9.40
2022-10-19T04:07:42.396Z,9.75
2022-10-19T04:09:44.487Z,9.55
2022-10-19T04:11:46.760Z,9.43
2022-10-19T04:13:53.225Z,10.80
2022-10-19T04:15:55.692Z,9.57
2022-10-19T04:17:58.067Z,9.40
2022-10-19T04:20:00.072Z,10.35
2022-10-19T04:22:04.141Z,11.35
2022-10-19T04:24:17.279Z,10.57
2022-10-19T04:26:20.129Z,10.93
2022-10-19T04:28:22.225Z,10.35
2022-10-19T04:30:24.254Z,10.25
2022-10-19T04:32:26.236Z,10.23
2022-10-19T04:34:28.707Z,10.40
2022-10-19T04:36:31.042Z,11.10
2022-10-19T04:38:33.775Z,10.70
2022-10-19T04:40:36.913Z,10.70
2022-10-19T04:42:39.299Z,11.65
2022-10-19T04:44:41.697Z,10.75
2022-10-19T04:46:43.910Z,10.55
2022-10-19T04:48:48.002Z,10.93
2022-10-19T04:50:50.126Z,10.20
2022-10-19T04:52:55.585Z,10.32
2022-10-19T04:54:58.113Z,11.55
2022-10-19T04:57:00.314Z,12.40
2022-10-19T04:59:04.263Z,10.93
2022-10-19T05:01:21.038Z,11.57
2022-10-19T05:03:23.173Z,10.32
2022-10-19T05:05:28.319Z,11.38
2022-10-19T05:07:33.949Z,11.93
2022-10-19T05:09:36.918Z,12.30
2022-10-19T05:11:39.025Z,12.27
2022-10-19T05:13:42.384Z,13.15
2022-10-19T05:15:44.562Z,14.27
2022-10-19T05:17:49.499Z,17.67
2022-10-19T05:19:51.423Z,18.90
2022-10-19T05:21:53.308Z,20.95
2022-10-19T05:23:56.531Z,20.67
2022-10-19T05:26:19.495Z,16.50
2022-10-19T05:28:21.449Z,17.10
2022-10-19T05:30:23.474Z,19.90
2022-10-19T05:32:27.277Z,23.80
2022-10-19T05:34:29.204Z,21.45
2022-10-19T05:36:37.070Z,18.20
2022-10-19T05:38:39.251Z,16.75
2022-10-19T05:40:50.266Z,16.95
2022-10-19T05:42:54.675Z,15.50
2022-10-19T05:44:56.694Z,15.07
2022-10-19T05:46:58.911Z,13.32
2022-10-19T05:49:00.779Z,13.60
2022-10-19T05:51:05.307Z,13.25
2022-10-19T05:53:07.072Z,12.85
2022-10-19T05:55:09.628Z,12.82
2022-10-19T05:57:11.385Z,13.05
2022-10-19T05:59:19.689Z,12.75
2022-10-19T06:01:21.588Z,13.45
2022-10-19T06:03:24.299Z,15.38
2022-10-19T06:05:26.083Z,14.13
2022-10-19T06:07:28.097Z,20.13
2022-10-19T06:09:35.802Z,22.17
2022-10-19T06:11:40.602Z,23.85
2022-10-19T06:13:44.071Z,23.40
2022-10-19T06:15:50.437Z,24.95
2022-10-19T06:17:52.250Z,22.27
2022-10-19T06:19:54.033Z,20.13
2022-10-19T06:21:55.700Z,17.33
2022-10-19T06:24:03.159Z,17.55
2022-10-19T06:26:11.093Z,15.40
2022-10-19T06:28:13.107Z,14.55
2022-10-19T06:30:14.974Z,14.27
2022-10-19T06:32:16.876Z,13.65
2022-10-19T06:34:19.029Z,13.68
2022-10-19T06:36:23.508Z,14.25
2022-10-19T06:38:25.325Z,14.68
2022-10-19T06:40:27.266Z,26.73
2022-10-19T06:42:29.476Z,32.38
2022-10-19T06:44:31.268Z,30.48
2022-10-19T06:46:33.948Z,24.17
2022-10-19T06:48:35.787Z,17.80
2022-10-19T06:50:37.676Z,15.55
2022-10-19T06:52:40.891Z,13.82
2022-10-19T06:54:42.648Z,14.52
2022-10-19T06:56:44.593Z,13.00
2022-10-19T06:58:46.469Z,13.10
2022-10-19T07:00:57.582Z,13.75
2022-10-19T07:02:59.628Z,13.73
2022-10-19T07:05:06.948Z,13.80
2022-10-19T07:07:09.489Z,15.10
2022-10-19T07:09:11.370Z,15.57
2022-10-19T07:11:17.248Z,13.75
2022-10-19T07:13:19.895Z,12.75
2022-10-19T07:15:21.609Z,11.73
2022-10-19T07:17:23.632Z,11.63
2022-10-19T07:19:26.830Z,13.93
2022-10-19T07:21:28.995Z,14.90
2022-10-19T07:23:32.819Z,14.88
2022-10-19T07:25:36.278Z,14.60
2022-10-19T07:27:40.140Z,15.35
2022-10-19T07:29:42.383Z,14.68
2022-10-19T07:31:44.386Z,13.50
2022-10-19T07:33:47.704Z,12.70
2022-10-19T07:35:49.784Z,13.60
2022-10-19T07:37:51.699Z,12.85
2022-10-19T07:39:53.485Z,13.90
2022-10-19T07:41:55.394Z,17.38
2022-10-19T07:43:58.038Z,20.77
2022-10-19T07:46:02.358Z,22.02
2022-10-19T07:48:04.410Z,22.30
2022-10-19T07:50:06.488Z,22.90
2022-10-19T07:52:08.393Z,22.38
2022-10-19T07:54:10.261Z,20.27
2022-10-19T07:56:29.964Z,16.45
2022-10-19T07:58:32.357Z,16.42
2022-10-19T08:00:34.276Z,16.15
2022-10-19T08:02:54.782Z,17.23
2022-10-19T08:05:05.083Z,16.55
2022-10-19T08:07:10.711Z,16.33
2022-10-19T08:09:27.724Z,13.70
2022-10-19T08:11:36.218Z,13.10
2022-10-19T08:13:38.864Z,11.73
2022-10-19T08:15:40.935Z,11.50
2022-10-19T08:17:43.295Z,12.15
2022-10-19T08:19:47.242Z,11.05
2022-10-19T08:21:49.904Z,12.00
2022-10-19T08:23:52.294Z,11.63
2022-10-19T08:25:59.158Z,10.85
2022-10-19T08:28:01.203Z,12.35
2022-10-19T08:30:03.658Z,11.90
2022-10-19T08:32:05.896Z,11.82
2022-10-19T08:34:08.657Z,11.60
2022-10-19T08:36:12.620Z,18.40
2022-10-19T08:38:14.761Z,16.33
2022-10-19T08:40:25.184Z,14.90
2022-10-19T08:42:42.375Z,13.20
2022-10-19T08:45:03.552Z,13.00
2022-10-19T08:50:53.833Z,11.80
2022-10-19T08:53:03.894Z,11.65
2022-10-19T08:55:18.037Z,14.70
2022-10-19T08:57:46.491Z,16.33
2022-10-19T09:00:21.342Z,16.77
2022-10-19T09:02:51.395Z,13.70
2022-10-19T09:05:00.823Z,13.63
2022-10-19T09:07:26.465Z,12.48
2022-10-19T09:09:31.156Z,11.90
2022-10-19T09:11:38.911Z,12.27
2022-10-19T09:14:05.821Z,11.98
2022-10-19T09:16:17.647Z,11.65
2022-10-19T09:18:20.069Z,12.43
2022-10-19T09:20:44.846Z,10.77
2022-10-19T09:22:55.005Z,12.50
2022-10-19T09:25:07.896Z,14.73
2022-10-19T09:27:30.356Z,15.45
2022-10-19T09:29:47.956Z,15.68
2022-10-19T09:31:55.338Z,13.60
2022-10-19T09:34:02.469Z,12.88
2022-10-19T09:36:07.719Z,12.10
2022-10-19T09:38:15.013Z,11.90
2022-10-19T09:40:29.753Z,11.27
2022-10-19T09:42:34.727Z,11.85
2022-10-19T09:44:37.004Z,11.45
2022-10-19T09:48:52.549Z,16.05
2022-10-19T09:50:59.370Z,19.00
2022-10-19T09:53:05.734Z,19.60
2022-10-19T09:55:13.572Z,17.58
2022-10-19T09:57:21.899Z,16.30
2022-10-19T09:59:29.017Z,15.32
2022-10-19T10:01:43.523Z,16.20
2022-10-19T10:03:53.824Z,13.80
2022-10-19T10:06:10.484Z,11.35
2022-10-19T10:08:22.852Z,10.25
2022-10-19T10:10:34.614Z,10.55
2022-10-19T10:12:37.710Z,11.15
2022-10-19T10:14:40.951Z,11.05
2022-10-19T10:16:42.798Z,10.57
2022-10-19T10:18:50.699Z,9.43
2022-10-19T10:21:07.238Z,10.60
2022-10-19T10:23:23.992Z,9.25
2022-10-19T10:25:30.277Z,10.10
2022-10-19T10:27:38.227Z,10.15
2022-10-19T10:29:40.538Z,9.68
2022-10-19T10:31:43.030Z,10.48
2022-10-19T10:33:54.551Z,10.50
2022-10-19T10:36:02.665Z,10.68
2022-10-19T10:38:21.754Z,10.23
2022-10-19T10:40:30.850Z,15.18
2022-10-19T10:42:43.015Z,12.20
2022-10-19T10:44:50.473Z,14.32
2022-10-19T10:46:56.168Z,14.48
2022-10-19T10:49:02.552Z,12.65
2022-10-19T10:51:19.833Z,11.23
2022-10-19T10:53:40.898Z,11.82
2022-10-19T10:55:56.170Z,10.10
2022-10-19T10:58:50.903Z,10.73
2022-10-19T11:00:53.891Z,11.25
2022-10-19T11:03:11.054Z,10.70
2022-10-19T11:05:33.808Z,11.88
2022-10-19T11:07:37.014Z,10.82
2022-10-19T11:09:44.951Z,11.15
2022-10-19T11:12:49.467Z,10.23
2022-10-19T11:15:03.200Z,10.45
2022-10-19T11:17:11.580Z,9.77
2022-10-19T11:19:19.440Z,9.52
2022-10-19T11:21:32.095Z,9.48
2022-10-19T11:24:02.304Z,9.57
2022-10-19T11:26:49.538Z,11.77
2022-10-19T11:29:25.349Z,12.00
2022-10-19T11:31:50.800Z,11.25
2022-10-19T11:34:03.584Z,12.82
2022-10-19T11:36:30.153Z,12.38
2022-10-19T11:39:01.632Z,12.27
2022-10-19T11:41:27.517Z,11.52
2022-10-19T11:43:54.705Z,11.95
2022-10-19T11:46:09.839Z,12.75
2022-10-19T11:48:35.717Z,17.98
2022-10-19T11:50:44.081Z,19.25
2022-10-19T11:53:24.186Z,17.90
2022-10-19T11:55:29.512Z,20.58
2022-10-19T11:57:50.785Z,19.80
2022-10-19T12:00:00.247Z,18.35
2022-10-19T12:02:50.008Z,20.58
2022-10-19T12:04:57.745Z,19.20
2022-10-19T12:07:27.565Z,17.00
2022-10-19T12:09:48.296Z,17.38
2022-10-19T12:11:50.061Z,15.45
2022-10-19T12:13:57.564Z,13.60
2022-10-19T12:16:00.820Z,17.08
2022-10-19T12:18:32.272Z,17.90
2022-10-19T12:20:51.600Z,27.35
2022-10-19T12:22:53.896Z,21.73
2022-10-19T12:24:58.724Z,20.40
2022-10-19T12:27:36.635Z,19.80
2022-10-19T12:29:43.937Z,16.77
2022-10-19T12:31:47.050Z,15.57
2022-10-19T12:34:09.512Z,14.02
2022-10-19T12:36:28.354Z,11.57
2022-10-19T12:38:40.976Z,12.90
2022-10-19T12:41:15.492Z,20.42
2022-10-19T12:43:28.277Z,19.75
2022-10-19T12:45:42.235Z,14.70
2022-10-19T12:48:09.478Z,14.25
2022-10-19T12:50:11.874Z,18.77
2022-10-19T12:52:16.503Z,30.85
2022-10-19T12:54:25.882Z,23.15
2022-10-19T12:56:28.023Z,16.85
2022-10-19T12:58:46.604Z,12.25
2022-10-19T13:01:07.789Z,9.80
2022-10-19T13:03:25.079Z,8.70
2022-10-19T13:05:32.106Z,10.15
2022-10-19T13:07:36.217Z,10.10
2022-10-19T13:09:47.802Z,10.13
2022-10-19T13:12:21.698Z,9.98
2022-10-19T13:14:45.240Z,9.25
2022-10-19T13:17:01.895Z,9.20
2022-10-19T13:19:12.887Z,10.25
2022-10-19T13:21:50.035Z,8.65
2022-10-19T13:23:52.507Z,8.65
2022-10-19T13:26:30.508Z,8.13
2022-10-19T13:28:32.383Z,11.18
2022-10-19T13:30:42.079Z,10.90
2022-10-19T13:32:45.584Z,9.45
2022-10-19T13:34:48.076Z,9.32
2022-10-19T13:37:02.129Z,8.35
2022-10-19T13:39:08.466Z,8.27
2022-10-19T13:41:16.011Z,7.20
2022-10-19T13:43:24.410Z,13.27
2022-10-19T13:45:27.313Z,18.85
2022-10-19T13:47:40.980Z,12.68
2022-10-19T13:50:01.961Z,8.98
2022-10-19T13:52:20.823Z,7.90
2022-10-19T13:54:35.985Z,7.93
2022-10-19T13:57:09.122Z,8.13
2022-10-19T13:59:39.154Z,8.93
2022-10-19T14:02:23.880Z,9.23
2022-10-19T14:04:33.556Z,9.18
2022-10-19T14:06:51.028Z,8.90
2022-10-19T14:09:43.831Z,7.47
2022-10-19T14:11:48.441Z,7.93
2022-10-19T14:14:10.819Z,8.15
2022-10-19T14:16:21.434Z,7.78
2022-10-19T14:18:31.329Z,8.38
2022-10-19T14:20:36.278Z,9.20
2022-10-19T14:22:38.034Z,8.68
2022-10-19T14:24:39.886Z,11.23
2022-10-19T14:26:42.193Z,14.15
2022-10-19T14:29:05.941Z,21.73
2022-10-19T14:31:11.079Z,24.70
2022-10-19T14:33:17.979Z,26.40
2022-10-19T14:35:24.569Z,26.15
2022-10-19T14:38:28.633Z,26.52
2022-10-19T14:40:38.109Z,29.10
2022-10-19T14:42:49.342Z,39.67
2022-10-19T14:44:51.308Z,28.40
2022-10-19T14:46:53.190Z,30.35
2022-10-19T14:49:04.067Z,29.70
2022-10-19T14:51:36.533Z,32.53
2022-10-19T14:53:53.939Z,31.42
2022-10-19T14:56:00.921Z,27.23
2022-10-19T14:58:13.965Z,25.23
2022-10-19T15:00:32.403Z,23.77
2022-10-19T15:02:39.327Z,23.45
2022-10-19T15:04:42.818Z,21.58
2022-10-19T15:06:58.722Z,19.15
2022-10-19T15:09:12.110Z,16.23
2022-10-19T15:11:37.910Z,14.20
2022-10-19T15:13:43.280Z,16.23
2022-10-19T15:15:45.270Z,14.30
2022-10-19T15:18:06.765Z,13.27
2022-10-19T15:20:24.942Z,12.73
2022-10-19T15:22:39.752Z,12.75
2022-10-19T15:25:07.594Z,12.80
2022-10-19T15:27:11.331Z,11.70
2022-10-19T15:29:30.089Z,12.50
2022-10-19T15:31:32.083Z,13.30
2022-10-19T15:33:39.381Z,14.80
2022-10-19T15:35:44.607Z,13.88
2022-10-19T15:37:49.796Z,14.25
2022-10-19T15:39:52.852Z,12.95
2022-10-19T15:41:54.969Z,14.10
2022-10-19T15:44:00.437Z,15.25
2022-10-19T15:46:08.640Z,14.73
2022-10-19T15:48:10.576Z,14.50
2022-10-19T15:50:32.660Z,15.07
2022-10-19T15:52:34.880Z,15.27
2022-10-19T15:54:36.875Z,14.90
2022-10-19T15:56:40.347Z,16.08
2022-10-19T15:58:42.305Z,14.80
2022-10-19T16:00:44.525Z,14.95
2022-10-19T16:02:46.686Z,13.85
2022-10-19T16:04:48.550Z,14.00
2022-10-19T16:06:50.547Z,13.43
2022-10-19T16:08:54.219Z,14.50
2022-10-19T16:10:56.134Z,14.43
2022-10-19T16:12:57.999Z,14.63
2022-10-19T16:15:00.133Z,14.20
2022-10-19T16:17:02.193Z,15.35
2022-10-19T16:19:04.183Z,14.45
2022-10-19T16:21:06.761Z,15.55
2022-10-19T16:23:10.222Z,16.30
2022-10-19T16:25:14.343Z,15.50
2022-10-19T16:27:16.566Z,15.82
2022-10-19T16:29:18.654Z,14.93
2022-10-19T16:31:20.588Z,16.30
2022-10-19T16:33:23.359Z,15.85
2022-10-19T16:35:25.460Z,17.40
2022-10-19T16:37:27.963Z,18.40
2022-10-19T16:39:29.821Z,18.65
2022-10-19T16:41:32.049Z,20.02
2022-10-19T16:43:34.926Z,20.25
2022-10-19T16:45:36.859Z,20.25
2022-10-19T16:47:38.749Z,21.45
2022-10-19T16:49:40.844Z,26.20
2022-10-19T16:51:43.114Z,27.40
2022-10-19T16:53:45.033Z,25.92
2022-10-19T16:55:46.924Z,23.05
2022-10-19T16:57:49.189Z,20.85
2022-10-19T17:02:00.888Z,21.48
2022-10-19T17:04:03.439Z,22.58
2022-10-19T17:06:07.384Z,19.70
2022-10-19T17:08:11.837Z,16.38
2022-10-19T17:10:15.661Z,16.00
2022-10-19T17:12:17.947Z,17.55
2022-10-19T17:14:19.871Z,23.92
2022-10-19T17:16:22.500Z,27.65
2022-10-19T17:18:24.450Z,26.75
2022-10-19T17:20:26.576Z,23.73
2022-10-19T17:22:28.745Z,22.08
2022-10-19T17:24:31.770Z,23.80
2022-10-19T17:26:40.435Z,16.63
2022-10-19T17:28:43.808Z,12.55
2022-10-19T17:30:49.286Z,9.15
2022-10-19T17:32:51.526Z,9.80
2022-10-19T17:34:54.546Z,9.15
2022-10-19T17:37:58.691Z,7.45
2022-10-19T17:40:00.808Z,6.53
2022-10-19T17:42:04.307Z,6.10
2022-10-19T17:44:06.339Z,5.72
2022-10-19T17:46:10.687Z,6.90
2022-10-19T17:48:12.812Z,7.07
2022-10-19T17:50:14.909Z,7.32
2022-10-19T17:52:16.830Z,7.43
2022-10-19T17:54:18.984Z,7.07
2022-10-19T17:56:21.695Z,7.10
2022-10-19T17:58:23.947Z,6.43
2022-10-19T18:00:25.897Z,5.60
2022-10-19T18:02:28.048Z,6.13
2022-10-19T18:04:31.085Z,5.70
2022-10-19T18:06:36.018Z,6.53
2022-10-19T18:08:40.963Z,5.72
2022-10-19T18:10:42.965Z,6.38
2022-10-19T18:12:45.329Z,5.93
2022-10-19T18:14:47.339Z,6.78
2022-10-19T18:16:49.483Z,8.95
2022-10-19T18:18:54.134Z,8.13
2022-10-19T18:20:56.167Z,10.07
2022-10-19T18:22:58.072Z,12.55
2022-10-19T18:25:00.102Z,11.85
2022-10-19T18:27:04.965Z,12.07
2022-10-19T18:29:23.058Z,12.02
2022-10-19T18:31:29.394Z,10.35
2022-10-19T18:33:48.178Z,6.82
2022-10-19T18:35:50.212Z,6.68
2022-10-19T18:37:52.087Z,5.35
2022-10-19T18:39:54.382Z,5.20
2022-10-19T18:41:56.295Z,5.13
2022-10-19T18:44:03.266Z,4.93
2022-10-19T18:46:05.682Z,5.15
2022-10-19T18:48:08.263Z,4.15
2022-10-19T18:50:10.448Z,3.67
2022-10-19T18:52:12.279Z,3.75
2022-10-19T18:54:14.509Z,3.67
2022-10-19T18:56:18.643Z,4.10
2022-10-19T18:58:20.373Z,3.80
2022-10-19T19:00:22.280Z,3.95
2022-10-19T19:02:34.675Z,3.83
2022-10-19T19:04:38.096Z,4.38
2022-10-19T19:06:40.238Z,3.63
2022-10-19T19:10:46.374Z,3.85
2022-10-19T19:12:51.589Z,3.97
2022-10-19T19:14:53.502Z,5.25
2022-10-19T19:16:55.401Z,6.10
2022-10-19T19:18:57.219Z,6.38
2022-10-19T19:20:59.178Z,7.65
2022-10-19T19:23:01.219Z,6.32
2022-10-19T19:25:04.399Z,6.50
2022-10-19T19:27:06.584Z,6.30
2022-10-19T19:29:08.709Z,4.78
2022-10-19T19:31:11.787Z,4.03
2022-10-19T19:33:14.733Z,4.95
2022-10-19T19:35:16.850Z,5.30
2022-10-19T19:37:18.888Z,4.90
2022-10-19T19:39:21.227Z,5.07
2022-10-19T19:41:23.519Z,6.00
2022-10-19T19:43:25.678Z,6.40
2022-10-19T19:45:27.475Z,4.93
2022-10-19T19:47:29.500Z,5.18
2022-10-19T19:49:31.433Z,4.53
2022-10-19T19:51:34.093Z,4.30
2022-10-19T19:53:37.493Z,5.05
2022-10-19T19:55:39.640Z,3.90
2022-10-19T19:57:41.795Z,3.92
2022-10-19T19:59:43.772Z,4.18
2022-10-19T20:01:46.264Z,3.85
2022-10-19T20:03:48.939Z,3.03
2022-10-19T20:05:51.125Z,2.97
2022-10-19T20:07:53.666Z,3.20
2022-10-19T20:09:58.003Z,3.50
2022-10-19T20:12:02.526Z,4.15
2022-10-19T20:14:05.042Z,3.10
2022-10-19T20:16:18.723Z,3.33
2022-10-19T20:18:22.649Z,3.60
2022-10-19T20:20:25.282Z,4.07
2022-10-19T20:22:27.205Z,4.45
2022-10-19T20:24:30.329Z,4.90
2022-10-19T20:26:34.107Z,4.78
2022-10-19T20:28:35.961Z,3.70
2022-10-19T20:30:37.920Z,4.63
2022-10-19T20:32:39.950Z,3.80
2022-10-19T20:34:42.806Z,3.53
2022-10-19T20:36:45.154Z,3.25
2022-10-19T20:38:55.304Z,3.65
2022-10-19T20:40:57.475Z,3.60
2022-10-19T20:42:59.452Z,3.97
2022-10-19T20:45:01.581Z,3.47
2022-10-19T20:47:03.863Z,4.32
2022-10-19T20:49:07.507Z,4.05
2022-10-19T20:51:18.276Z,3.50
2022-10-19T20:53:20.464Z,4.68
2022-10-19T20:55:22.431Z,2.75
2022-10-19T20:57:27.023Z,2.83
2022-10-19T20:59:29.182Z,2.47
2022-10-19T21:01:32.912Z,2.42
2022-10-19T21:03:35.508Z,2.70
2022-10-19T21:05:38.729Z,2.55
2022-10-19T21:07:40.911Z,3.00
2022-10-19T21:09:42.856Z,3.47
2022-10-19T21:11:47.479Z,2.88
2022-10-19T21:13:52.788Z,2.85
2022-10-19T21:15:55.096Z,3.33
2022-10-19T21:17:57.046Z,3.40
2022-10-19T21:19:59.001Z,3.38
2022-10-19T21:22:02.621Z,2.95
2022-10-19T21:24:13.986Z,2.80
2022-10-19T21:26:17.275Z,2.78
2022-10-19T21:28:19.399Z,2.83
2022-10-19T21:30:21.927Z,2.42
2022-10-19T21:32:24.237Z,2.47
2022-10-19T21:34:29.431Z,1.90
2022-10-19T21:36:31.641Z,2.20
2022-10-19T21:38:34.684Z,2.42
2022-10-19T21:40:39.292Z,2.92
2022-10-19T21:42:41.385Z,2.78
2022-10-19T21:44:43.291Z,2.40
2022-10-19T21:46:47.951Z,2.80
2022-10-19T21:48:50.569Z,2.78
2022-10-19T21:50:52.792Z,2.55
2022-10-19T21:52:55.975Z,2.15
2022-10-19T21:54:58.431Z,2.50
2022-10-19T21:57:03.866Z,2.28
2022-10-19T21:59:06.543Z,2.25
2022-10-19T22:01:09.135Z,2.13
2022-10-19T22:03:11.361Z,2.55
2022-10-19T22:08:48.302Z,2.97
2022-10-19T22:10:50.979Z,2.30
2022-10-19T22:12:52.993Z,2.25
2022-10-19T22:14:55.575Z,2.10
2022-10-19T22:16:58.066Z,2.10
2022-10-19T22:19:00.449Z,3.00
2022-10-19T22:21:05.220Z,2.55
2022-10-19T22:23:08.518Z,2.70
2022-10-19T22:25:10.617Z,2.63
2022-10-19T22:27:12.916Z,4.03
2022-10-19T22:29:15.191Z,3.15
2022-10-19T22:31:17.270Z,6.65
2022-10-19T22:33:19.465Z,5.05
2022-10-19T22:35:22.148Z,3.40
2022-10-19T22:37:24.446Z,2.33
2022-10-19T22:39:28.033Z,1.75
2022-10-19T22:41:30.147Z,2.05
2022-10-19T22:43:32.316Z,3.03
2022-10-19T22:45:34.174Z,2.85
2022-10-19T22:47:37.119Z,2.90
2022-10-19T22:49:39.168Z,1.88
2022-10-19T22:51:41.215Z,2.15
2022-10-19T22:53:43.502Z,2.08
2022-10-19T22:55:45.623Z,2.38
2022-10-19T22:57:49.918Z,1.70
2022-10-19T22:59:51.979Z,1.75
2022-10-19T23:01:54.222Z,2.35
2022-10-19T23:03:56.778Z,1.80
2022-10-19T23:05:58.990Z,1.75
2022-10-19T23:08:03.546Z,2.35
2022-10-19T23:10:06.639Z,2.10
2022-10-19T23:12:08.816Z,2.10
2022-10-19T23:14:10.733Z,1.98
2022-10-19T23:16:12.833Z,2.00
2022-10-19T23:18:15.562Z,1.77
2022-10-19T23:20:17.783Z,2.47
2022-10-19T23:22:20.170Z,2.58
2022-10-19T23:24:22.414Z,1.85
2022-10-19T23:26:25.236Z,2.30
2022-10-19T23:28:28.073Z,2.22
2022-10-19T23:30:30.189Z,2.30
2022-10-19T23:32:32.303Z,2.33
2022-10-19T23:36:37.261Z,2.80
2022-10-19T23:38:39.289Z,2.55
2022-10-19T23:40:45.365Z,2.80
2022-10-19T23:42:47.285Z,2.53
2022-10-19T23:44:49.282Z,2.60
2022-10-19T23:46:51.347Z,2.63
2022-10-19T23:48:53.628Z,2.65
2022-10-19T23:51:07.684Z,2.40
2022-10-19T23:53:09.966Z,2.40
2022-10-19T23:55:11.962Z,2.08
2022-10-19T23:57:13.989Z,2.13
2022-10-19T23:59:16.306Z,2.72
